Time;durP1;ratioP1;P1;durP2;ratioP2;P2;SDS_P1;SDS_P2;PMS_P1;PMS_P2;Temp;Humidity;BMP_temperature;BMP_pressure;BME280_temperature;BME280_humidity;BME280_pressure;Samples;Min_cycle;Max_cycle;Signal;HPM_P1;HPM_P2
2022/12/05 00:02:12;;;;;;;21.67;16.50;;;4.50;99.90;;;;;;4996829;28;20061;-64
2022/12/05 00:04:37;;;;;;;23.40;15.52;;;4.50;99.90;;;;;;4995820;28;20129;-65
2022/12/05 00:07:03;;;;;;;23.80;15.80;;;4.50;99.90;;;;;;4997442;28;20461;-63
2022/12/05 00:09:29;;;;;;;20.63;15.77;;;4.60;99.90;;;;;;4996071;28;20054;-64
2022/12/05 00:11:55;;;;;;;21.67;16.38;;;4.50;99.90;;;;;;5001035;28;20048;-65
2022/12/05 00:14:20;;;;;;;22.88;15.55;;;4.60;99.90;;;;;;4999496;28;20419;-64
2022/12/05 00:16:46;;;;;;;21.58;15.57;;;4.60;99.90;;;;;;4999172;28;20042;-65
2022/12/05 00:19:14;;;;;;;22.58;15.65;;;4.60;99.90;;;;;;4996577;28;20042;-64
2022/12/05 00:21:40;;;;;;;20.80;15.68;;;4.60;99.90;;;;;;5004061;28;20046;-65
2022/12/05 00:24:07;;;;;;;22.02;16.48;;;4.60;99.90;;;;;;4999637;28;20030;-64
2022/12/05 00:26:34;;;;;;;27.25;17.65;;;4.60;99.90;;;;;;4999585;28;20549;-65
2022/12/05 00:29:00;;;;;;;18.85;12.90;;;4.60;99.90;;;;;;5000959;28;20120;-64
2022/12/05 00:31:27;;;;;;;23.50;16.58;;;4.60;99.90;;;;;;5001107;28;20125;-64
2022/12/05 00:33:54;;;;;;;25.23;17.92;;;4.60;99.90;;;;;;4998816;28;20046;-64
2022/12/05 00:36:22;;;;;;;25.08;18.10;;;4.60;99.90;;;;;;5001167;28;20054;-64
2022/12/05 00:38:48;;;;;;;25.20;17.58;;;4.60;99.90;;;;;;5035588;28;20446;-64
2022/12/05 00:41:19;;;;;;;26.67;18.15;;;4.60;99.90;;;;;;5002882;28;20586;-64
2022/12/05 00:43:45;;;;;;;25.05;18.10;;;4.60;99.90;;;;;;5003722;28;20049;-64
2022/12/05 00:46:15;;;;;;;24.83;17.92;;;4.60;99.90;;;;;;5003041;28;20045;-65
2022/12/05 00:48:41;;;;;;;26.40;18.92;;;4.60;99.90;;;;;;5001388;28;20070;-65
2022/12/05 00:51:21;;;;;;;26.63;19.13;;;4.70;99.90;;;;;;5001666;28;20049;-64
2022/12/05 00:53:47;;;;;;;25.13;18.75;;;4.70;99.90;;;;;;5002342;28;20125;-64
2022/12/05 00:56:20;;;;;;;25.00;18.38;;;4.70;99.90;;;;;;5000397;28;20669;-64
2022/12/05 00:58:47;;;;;;;26.15;19.23;;;4.70;99.90;;;;;;5005278;28;20550;-64
2022/12/05 01:01:15;;;;;;;26.83;19.15;;;4.60;99.90;;;;;;5004168;28;20550;-65
2022/12/05 01:03:43;;;;;;;27.63;19.35;;;4.70;99.90;;;;;;4997753;28;20101;-63
2022/12/05 01:06:10;;;;;;;27.67;18.83;;;4.70;99.90;;;;;;4999103;28;20482;-64
2022/12/05 01:08:36;;;;;;;24.70;17.83;;;4.60;99.90;;;;;;5004562;28;20069;-63
2022/12/05 01:11:03;;;;;;;24.00;18.23;;;4.70;99.90;;;;;;4996643;28;20080;-63
2022/12/05 01:13:29;;;;;;;23.48;18.25;;;4.70;99.90;;;;;;4999622;28;20494;-64
2022/12/05 01:15:55;;;;;;;30.20;20.42;;;4.70;99.90;;;;;;4991800;28;20069;-63
2022/12/05 01:18:22;;;;;;;31.17;20.40;;;4.70;99.90;;;;;;5001456;28;20072;-64
2022/12/05 01:20:49;;;;;;;27.05;18.63;;;4.70;99.90;;;;;;4999747;28;20128;-64
2022/12/05 01:23:15;;;;;;;27.13;20.02;;;4.70;99.90;;;;;;5005496;28;20056;-63
2022/12/05 01:25:43;;;;;;;28.15;19.83;;;4.70;99.90;;;;;;4997755;28;20038;-64
2022/12/05 01:28:09;;;;;;;26.27;19.30;;;4.80;99.90;;;;;;4999825;28;20045;-63
2022/12/05 01:30:40;;;;;;;30.90;20.83;;;4.80;99.90;;;;;;5003500;28;20038;-64
2022/12/05 01:33:07;;;;;;;28.88;20.25;;;4.80;99.90;;;;;;5004367;28;21802;-64
2022/12/05 01:35:34;;;;;;;28.52;20.63;;;4.80;99.90;;;;;;4998672;28;20100;-64
2022/12/05 01:37:59;;;;;;;28.90;19.90;;;4.80;99.90;;;;;;5003270;28;20598;-63
2022/12/05 01:40:25;;;;;;;28.48;20.77;;;4.90;99.90;;;;;;5000475;28;20042;-65
2022/12/05 01:42:51;;;;;;;26.45;18.98;;;4.90;99.90;;;;;;5001891;28;20073;-64
2022/12/05 01:45:31;;;;;;;26.52;18.77;;;4.90;99.90;;;;;;4998023;28;20099;-64
2022/12/05 01:47:57;;;;;;;31.42;21.27;;;4.90;99.90;;;;;;5000120;28;20038;-64
2022/12/05 01:50:23;;;;;;;31.23;20.23;;;4.90;99.90;;;;;;4998584;28;20046;-65
2022/12/05 01:52:49;;;;;;;32.47;21.08;;;4.90;99.90;;;;;;5001629;28;20125;-64
2022/12/05 01:55:17;;;;;;;30.98;21.40;;;4.90;99.90;;;;;;5004890;28;20125;-63
2022/12/05 01:57:45;;;;;;;34.05;22.55;;;4.90;99.90;;;;;;5002097;28;20034;-64
2022/12/05 02:00:18;;;;;;;32.33;22.00;;;4.90;99.90;;;;;;5000842;28;20048;-63
2022/12/05 02:02:57;;;;;;;31.63;22.38;;;4.90;99.90;;;;;;4996808;28;20034;-64
2022/12/05 02:05:27;;;;;;;35.72;22.85;;;5.00;99.90;;;;;;5006704;28;20521;-66
2022/12/05 02:07:55;;;;;;;31.02;19.40;;;4.90;99.90;;;;;;4998550;28;20034;-65
2022/12/05 02:10:20;;;;;;;33.58;23.05;;;4.90;99.90;;;;;;5000922;28;20100;-64
2022/12/05 02:12:49;;;;;;;38.28;24.58;;;5.00;99.90;;;;;;4996693;28;20038;-64
2022/12/05 02:15:24;;;;;;;39.17;24.65;;;4.90;99.90;;;;;;5001185;28;20045;-64
2022/12/05 02:18:26;;;;;;;36.35;24.95;;;5.00;99.90;;;;;;5002507;28;20037;-64
2022/12/05 02:21:21;;;;;;;38.05;22.88;;;5.00;99.90;;;;;;5004734;28;20104;-64
2022/12/05 02:23:53;;;;;;;35.97;24.02;;;5.00;99.90;;;;;;4999749;28;20125;-65
2022/12/05 02:26:56;;;;;;;40.47;25.67;;;4.90;99.90;;;;;;4996341;28;20521;-64
2022/12/05 02:29:55;;;;;;;42.63;26.30;;;4.90;99.90;;;;;;4998526;28;21518;-64
2022/12/05 02:32:42;;;;;;;44.35;27.35;;;4.90;99.90;;;;;;4998185;28;20042;-63
2022/12/05 02:35:18;;;;;;;45.15;27.90;;;4.90;99.90;;;;;;5001776;28;20522;-64
2022/12/05 02:38:27;;;;;;;42.00;26.25;;;4.90;99.90;;;;;;4998971;28;20046;-64
2022/12/05 02:41:25;;;;;;;45.85;27.40;;;4.90;99.90;;;;;;4979004;28;20125;-65
2022/12/05 02:44:06;;;;;;;45.80;28.38;;;4.90;99.90;;;;;;5000694;28;20370;-64
2022/12/05 02:46:36;;;;;;;45.38;28.45;;;4.90;99.90;;;;;;4999335;28;20093;-64
2022/12/05 02:49:08;;;;;;;43.08;27.67;;;4.90;99.90;;;;;;5000284;28;20037;-63
2022/12/05 02:51:43;;;;;;;46.95;28.15;;;4.90;99.90;;;;;;5001579;28;20968;-64
2022/12/05 02:54:13;;;;;;;45.25;27.50;;;4.90;99.90;;;;;;4997027;28;20049;-64
2022/12/05 02:56:42;;;;;;;44.70;28.35;;;4.90;99.90;;;;;;4998907;28;20045;-64
2022/12/05 02:59:08;;;;;;;47.95;29.27;;;5.00;99.90;;;;;;4996492;28;20116;-64
2022/12/05 03:01:34;;;;;;;48.17;28.63;;;4.90;99.90;;;;;;4994996;28;20126;-64
2022/12/05 03:04:03;;;;;;;46.17;27.95;;;5.00;99.90;;;;;;4997845;28;20073;-63
2022/12/05 03:06:37;;;;;;;44.25;27.98;;;5.00;99.90;;;;;;5008192;28;20466;-64
2022/12/05 03:09:08;;;;;;;41.67;26.80;;;5.00;99.90;;;;;;5000932;28;20549;-65
2022/12/05 03:11:42;;;;;;;42.72;27.15;;;4.90;99.90;;;;;;4997133;28;20095;-64
2022/12/05 03:14:14;;;;;;;45.83;28.83;;;5.00;99.90;;;;;;4994150;28;20046;-64
2022/12/05 03:16:45;;;;;;;46.10;27.40;;;5.00;99.90;;;;;;4998527;28;20046;-64
2022/12/05 03:19:35;;;;;;;43.83;25.33;;;5.10;99.90;;;;;;4998736;28;20114;-64
2022/12/05 03:22:15;;;;;;;44.88;25.83;;;5.10;99.90;;;;;;5035435;28;20049;-65
2022/12/05 03:24:41;;;;;;;41.60;25.17;;;5.10;99.90;;;;;;4999674;28;20054;-64
2022/12/05 03:27:38;;;;;;;40.22;25.17;;;5.10;99.90;;;;;;4998458;28;20042;-64
2022/12/05 03:30:06;;;;;;;40.80;25.17;;;5.10;99.90;;;;;;5001213;28;20073;-63
2022/12/05 03:33:24;;;;;;;42.33;26.35;;;5.10;99.90;;;;;;5000503;28;20033;-64
2022/12/05 03:35:55;;;;;;;39.47;24.83;;;5.10;99.90;;;;;;4981786;28;20069;-62
2022/12/05 03:38:43;;;;;;;39.55;24.95;;;5.10;99.90;;;;;;5000789;28;20042;-63
2022/12/05 03:41:21;;;;;;;36.45;22.48;;;5.10;99.90;;;;;;5000186;28;20147;-63
2022/12/05 03:44:13;;;;;;;39.78;22.80;;;5.10;99.90;;;;;;4996092;28;20034;-64
2022/12/05 03:46:55;;;;;;;38.03;24.73;;;5.20;99.90;;;;;;4986262;28;20057;-64
2022/12/05 03:49:42;;;;;;;34.80;21.35;;;5.10;99.90;;;;;;5004873;28;20046;-63
2022/12/05 03:52:16;;;;;;;33.90;20.50;;;5.10;99.90;;;;;;5004775;28;20117;-63
2022/12/05 03:54:51;;;;;;;32.83;20.70;;;5.10;99.90;;;;;;4998680;28;20053;-64
2022/12/05 03:57:25;;;;;;;30.38;19.85;;;5.20;99.90;;;;;;5005510;28;20677;-64
2022/12/05 04:00:11;;;;;;;29.48;20.65;;;5.20;99.90;;;;;;5003632;28;20385;-64
2022/12/05 04:03:01;;;;;;;29.77;19.10;;;5.20;99.90;;;;;;5002549;28;20049;-64
2022/12/05 04:05:45;;;;;;;31.83;18.67;;;5.20;99.90;;;;;;4997651;28;20733;-63
2022/12/05 04:08:21;;;;;;;28.08;19.05;;;5.20;99.90;;;;;;5003659;28;20109;-65
2022/12/05 04:10:50;;;;;;;29.35;19.08;;;5.20;99.90;;;;;;5000864;28;20462;-64
2022/12/05 04:13:40;;;;;;;25.35;18.95;;;5.20;99.90;;;;;;5005827;28;20057;-63
2022/12/05 04:19:27;;;;;;;26.33;18.58;;;5.20;99.90;;;;;;5025053;28;20045;-63
2022/12/05 04:21:55;;;;;;;28.02;18.10;;;5.20;99.90;;;;;;5000246;28;20042;-64
2022/12/05 04:27:17;;;;;;;23.90;17.23;;;5.20;99.90;;;;;;5001379;28;20109;-63
2022/12/05 04:29:57;;;;;;;23.27;15.27;;;5.20;99.90;;;;;;5003155;28;20389;-64
2022/12/05 04:32:27;;;;;;;24.85;16.80;;;5.20;99.90;;;;;;5003802;28;20049;-63
2022/12/05 04:34:58;;;;;;;24.30;17.10;;;5.20;99.90;;;;;;5000821;28;20120;-63
2022/12/05 04:37:25;;;;;;;19.42;14.32;;;5.20;99.90;;;;;;5000287;28;20034;-63
2022/12/05 04:40:00;;;;;;;21.95;14.75;;;5.20;99.90;;;;;;5002170;28;20038;-64
2022/12/05 04:42:29;;;;;;;20.10;14.88;;;5.20;99.90;;;;;;4993171;28;20105;-63
2022/12/05 04:45:02;;;;;;;20.17;14.73;;;5.20;99.90;;;;;;5004562;28;20053;-63
2022/12/05 04:47:37;;;;;;;19.67;15.35;;;5.20;99.90;;;;;;4998015;28;20039;-63
2022/12/05 04:50:05;;;;;;;18.42;14.40;;;5.20;99.90;;;;;;4998687;28;20041;-64
2022/12/05 04:52:32;;;;;;;15.40;11.75;;;5.20;99.90;;;;;;5000748;28;20046;-65
2022/12/05 04:55:10;;;;;;;15.68;12.55;;;5.20;99.90;;;;;;5004176;28;20030;-63
2022/12/05 04:57:43;;;;;;;16.20;13.27;;;5.20;99.90;;;;;;5006887;28;20069;-63
2022/12/05 05:00:10;;;;;;;15.73;13.32;;;5.20;99.90;;;;;;4998707;28;20117;-63
2022/12/05 05:02:53;;;;;;;18.25;12.75;;;5.30;99.90;;;;;;4993524;28;20050;-63
2022/12/05 05:05:20;;;;;;;16.70;12.95;;;5.20;99.90;;;;;;5002709;28;20382;-64
2022/12/05 05:07:52;;;;;;;17.85;12.75;;;5.20;99.90;;;;;;5000868;28;20041;-63
2022/12/05 05:10:41;;;;;;;15.27;11.95;;;5.20;99.90;;;;;;5002367;28;20050;-63
2022/12/05 05:13:07;;;;;;;14.77;10.45;;;5.30;99.90;;;;;;4995365;28;20442;-64
2022/12/05 05:15:32;;;;;;;12.63;10.60;;;5.20;99.90;;;;;;5000450;28;20068;-63
2022/12/05 05:17:58;;;;;;;11.90;9.32;;;5.20;99.90;;;;;;5001364;28;20468;-63
2022/12/05 05:20:24;;;;;;;11.80;8.50;;;5.20;99.90;;;;;;5004491;28;20030;-65
2022/12/05 05:22:51;;;;;;;9.52;7.43;;;5.30;99.90;;;;;;4996434;28;20048;-64
2022/12/05 05:25:17;;;;;;;8.40;7.07;;;5.30;99.90;;;;;;4999826;28;20242;-63
2022/12/05 05:27:48;;;;;;;6.90;5.75;;;5.20;99.90;;;;;;4997933;28;20037;-64
2022/12/05 05:30:25;;;;;;;7.20;6.50;;;5.20;99.90;;;;;;5030327;28;20080;-64
2022/12/05 05:33:02;;;;;;;9.13;6.68;;;5.30;99.90;;;;;;4991585;28;20144;-63
2022/12/05 05:35:34;;;;;;;6.30;5.70;;;5.30;99.90;;;;;;4996177;28;20037;-63
2022/12/05 05:38:00;;;;;;;6.38;5.20;;;5.20;99.90;;;;;;4995538;28;20128;-64
2022/12/05 05:40:25;;;;;;;9.35;5.88;;;5.30;99.90;;;;;;5011259;28;20146;-64
2022/12/05 05:42:51;;;;;;;6.18;5.38;;;5.30;99.90;;;;;;4994585;28;20494;-63
2022/12/05 05:45:17;;;;;;;7.25;5.95;;;5.30;99.90;;;;;;4995012;28;20062;-63
2022/12/05 05:47:43;;;;;;;7.35;5.85;;;5.30;99.90;;;;;;4996347;28;20041;-63
2022/12/05 05:50:10;;;;;;;9.85;5.72;;;5.30;99.90;;;;;;4996803;28;20077;-64
2022/12/05 05:52:37;;;;;;;7.57;5.82;;;5.30;99.90;;;;;;4995365;28;20117;-63
2022/12/05 05:55:04;;;;;;;8.00;6.18;;;5.30;99.90;;;;;;4997276;28;20038;-64
2022/12/05 05:57:30;;;;;;;6.78;5.80;;;5.30;99.90;;;;;;4995096;28;20057;-64
2022/12/05 05:59:56;;;;;;;6.28;5.45;;;5.30;99.90;;;;;;4997961;28;20378;-63
2022/12/05 06:02:22;;;;;;;6.53;5.93;;;5.30;99.90;;;;;;5027684;28;20089;-63
2022/12/05 06:04:48;;;;;;;6.97;5.82;;;5.30;99.90;;;;;;4996225;28;20034;-62
2022/12/05 06:07:14;;;;;;;6.63;5.93;;;5.30;99.90;;;;;;5001569;28;20039;-63
2022/12/05 06:09:40;;;;;;;6.43;5.78;;;5.30;99.90;;;;;;4996006;28;20108;-63
2022/12/05 06:12:05;;;;;;;6.97;5.80;;;5.30;99.90;;;;;;4998902;28;20037;-64
2022/12/05 06:14:31;;;;;;;8.40;6.38;;;5.30;99.90;;;;;;4998595;28;20046;-63
2022/12/05 06:16:57;;;;;;;8.18;6.53;;;5.30;99.90;;;;;;5000869;28;20107;-63
2022/12/05 06:19:23;;;;;;;7.43;6.10;;;5.30;99.90;;;;;;4998433;28;20508;-63
2022/12/05 06:21:49;;;;;;;7.43;6.32;;;5.30;99.90;;;;;;4998248;28;20072;-63
2022/12/05 06:24:15;;;;;;;8.15;6.28;;;5.30;99.90;;;;;;4998862;28;20384;-64
2022/12/05 06:26:42;;;;;;;7.53;6.32;;;5.30;99.90;;;;;;4995316;28;20490;-64
2022/12/05 06:29:08;;;;;;;7.45;6.28;;;5.40;99.90;;;;;;4995993;28;20038;-65
2022/12/05 06:31:34;;;;;;;8.25;6.30;;;5.40;99.90;;;;;;4996144;28;20062;-63
2022/12/05 06:34:04;;;;;;;8.50;6.28;;;5.30;99.90;;;;;;5001626;28;20046;-64
2022/12/05 06:36:30;;;;;;;7.78;6.00;;;5.40;99.90;;;;;;4995082;28;20041;-65
2022/12/05 06:38:57;;;;;;;8.18;6.63;;;5.40;99.90;;;;;;4997843;28;20057;-63
2022/12/05 06:41:26;;;;;;;7.45;5.95;;;5.30;99.90;;;;;;4992755;28;20046;-65
2022/12/05 06:43:53;;;;;;;6.10;5.28;;;5.30;99.90;;;;;;4996358;28;20387;-64
2022/12/05 06:46:20;;;;;;;6.25;5.63;;;5.30;99.90;;;;;;4993405;28;20247;-63
2022/12/05 06:48:46;;;;;;;6.97;5.65;;;5.30;99.90;;;;;;4994209;28;20277;-63
2022/12/05 06:51:14;;;;;;;6.80;5.22;;;5.40;99.90;;;;;;4989089;28;20438;-65
2022/12/05 06:53:41;;;;;;;6.65;5.45;;;5.30;99.90;;;;;;4992032;28;20073;-63
2022/12/05 06:56:11;;;;;;;5.07;4.53;;;5.30;99.90;;;;;;4989905;28;20041;-63
2022/12/05 06:58:37;;;;;;;5.97;4.47;;;5.30;99.90;;;;;;4990332;28;20042;-64
2022/12/05 07:03:50;;;;;;;5.85;5.10;;;5.30;99.90;;;;;;4995864;28;20145;-63
2022/12/05 07:06:16;;;;;;;5.68;4.95;;;5.40;99.90;;;;;;4996838;28;20718;-64
2022/12/05 07:08:42;;;;;;;7.28;5.57;;;5.30;99.90;;;;;;4997596;28;20576;-64
2022/12/05 07:11:08;;;;;;;8.57;5.70;;;5.30;99.90;;;;;;5026662;28;20132;-64
2022/12/05 07:13:33;;;;;;;6.03;5.10;;;5.30;99.90;;;;;;5003760;28;20041;-64
2022/12/05 07:15:59;;;;;;;6.40;5.25;;;5.30;99.90;;;;;;4996656;28;20069;-64
2022/12/05 07:18:26;;;;;;;7.70;5.30;;;5.30;99.90;;;;;;5000319;28;20046;-65
2022/12/05 07:20:57;;;;;;;7.80;5.75;;;5.30;99.90;;;;;;4998731;28;20470;-64
2022/12/05 07:23:22;;;;;;;6.40;5.50;;;5.40;99.90;;;;;;4999284;28;20128;-64
2022/12/05 07:25:48;;;;;;;7.38;5.57;;;5.40;99.90;;;;;;5003902;28;20702;-66
2022/12/05 07:28:14;;;;;;;7.95;5.18;;;5.30;99.90;;;;;;4996588;28;20045;-64
2022/12/05 07:30:39;;;;;;;8.35;5.70;;;5.30;99.90;;;;;;5003259;28;20071;-64
2022/12/05 07:33:05;;;;;;;7.28;5.60;;;5.40;99.90;;;;;;5002212;28;20034;-64
2022/12/05 07:35:31;;;;;;;7.47;5.80;;;5.40;99.90;;;;;;5006378;28;20034;-64
2022/12/05 07:37:57;;;;;;;7.55;5.60;;;5.30;99.90;;;;;;5003849;28;20505;-66
2022/12/05 07:40:23;;;;;;;7.20;5.95;;;5.30;99.90;;;;;;5007353;28;20111;-66
2022/12/05 07:42:49;;;;;;;8.88;6.63;;;5.40;99.90;;;;;;5037727;28;20398;-64
2022/12/05 07:45:15;;;;;;;7.72;6.15;;;5.30;99.90;;;;;;5005945;28;20053;-64
2022/12/05 07:47:41;;;;;;;8.65;6.72;;;5.40;99.90;;;;;;5002312;28;20042;-64
2022/12/05 07:50:07;;;;;;;9.20;7.00;;;5.40;99.90;;;;;;5004296;28;20103;-64
2022/12/05 07:52:33;;;;;;;10.93;6.82;;;5.30;99.90;;;;;;5002753;28;20154;-64
2022/12/05 07:54:58;;;;;;;9.25;7.07;;;5.40;99.90;;;;;;5003546;28;20308;-64
2022/12/05 07:57:24;;;;;;;8.55;6.53;;;5.40;99.90;;;;;;5004900;28;20096;-64
2022/12/05 07:59:50;;;;;;;9.85;7.13;;;5.40;99.90;;;;;;5005531;28;20101;-64
2022/12/05 08:02:15;;;;;;;12.05;7.32;;;5.40;99.90;;;;;;5006261;28;20069;-64
2022/12/05 08:04:41;;;;;;;11.82;7.57;;;5.50;99.90;;;;;;5000895;28;20175;-63
2022/12/05 08:07:09;;;;;;;8.85;6.93;;;5.40;99.90;;;;;;5035682;28;20041;-64
2022/12/05 08:09:35;;;;;;;12.55;8.10;;;5.40;99.90;;;;;;5000948;28;20040;-64
2022/12/05 08:12:01;;;;;;;10.05;6.85;;;5.40;99.90;;;;;;5001474;28;20117;-64
2022/12/05 08:14:27;;;;;;;13.07;7.72;;;5.40;99.90;;;;;;5001305;28;20030;-64
2022/12/05 08:16:52;;;;;;;10.35;7.70;;;5.40;99.90;;;;;;5004630;28;20125;-63
2022/12/05 08:19:18;;;;;;;12.23;8.45;;;5.30;99.90;;;;;;4998197;28;20453;-63
2022/12/05 08:21:44;;;;;;;13.35;7.85;;;5.40;99.90;;;;;;5000681;28;20086;-64
2022/12/05 08:24:10;;;;;;;10.68;7.72;;;5.40;99.90;;;;;;5000473;28;20053;-63
2022/12/05 08:26:37;;;;;;;12.02;7.65;;;5.40;99.90;;;;;;5002173;28;20532;-63
2022/12/05 08:29:12;;;;;;;11.70;7.80;;;5.40;99.90;;;;;;4998253;28;20038;-64
2022/12/05 08:31:46;;;;;;;;;;;5.40;99.90;;;;;;5005440;28;20118;-64
2022/12/05 08:34:13;;;;;;;11.52;7.70;;;5.40;99.90;;;;;;5000068;28;19921;-63
2022/12/05 08:36:40;;;;;;;11.75;7.75;;;5.40;99.90;;;;;;5006063;28;20065;-64
2022/12/05 08:39:08;;;;;;;12.48;7.90;;;5.40;99.90;;;;;;4997234;28;20478;-65
2022/12/05 08:41:34;;;;;;;12.18;7.60;;;5.40;99.90;;;;;;4995503;28;20047;-63
2022/12/05 08:44:02;;;;;;;12.88;7.93;;;5.40;99.90;;;;;;5001872;28;20038;-64
2022/12/05 08:46:32;;;;;;;14.85;8.93;;;5.40;99.90;;;;;;5004654;28;20258;-63
2022/12/05 08:48:58;;;;;;;13.27;7.13;;;5.40;99.90;;;;;;4996105;28;20394;-64
2022/12/05 08:51:25;;;;;;;13.55;8.05;;;5.30;99.90;;;;;;4995626;28;20030;-63
2022/12/05 08:53:50;;;;;;;10.32;6.80;;;5.30;99.90;;;;;;5007236;28;20041;-64
2022/12/05 08:56:16;;;;;;;14.52;7.97;;;5.30;99.90;;;;;;5000659;28;20038;-64
2022/12/05 08:58:42;;;;;;;12.80;7.90;;;5.30;99.90;;;;;;5001389;28;20518;-63
2022/12/05 09:01:12;;;;;;;18.45;8.60;;;5.40;99.90;;;;;;4996271;28;20483;-65
2022/12/05 09:03:39;;;;;;;14.20;8.38;;;5.40;99.90;;;;;;4999380;28;20098;-64
2022/12/05 09:06:07;;;;;;;14.02;8.02;;;5.30;99.90;;;;;;5000627;28;20038;-63
2022/12/05 09:08:33;;;;;;;10.32;7.50;;;5.30;99.90;;;;;;5003915;28;20037;-63
2022/12/05 09:10:58;;;;;;;10.68;7.45;;;5.40;99.90;;;;;;5032984;28;20453;-64
2022/12/05 09:13:24;;;;;;;12.50;6.88;;;5.40;99.90;;;;;;5001364;28;20466;-63
2022/12/05 09:15:50;;;;;;;11.50;7.57;;;5.40;99.90;;;;;;5003742;28;20418;-64
2022/12/05 09:18:15;;;;;;;10.68;7.40;;;5.40;99.90;;;;;;5037871;28;20042;-64
2022/12/05 09:20:41;;;;;;;13.98;7.90;;;5.30;99.90;;;;;;5002975;28;20042;-64
2022/12/05 09:23:07;;;;;;;12.40;7.05;;;5.40;99.90;;;;;;5001857;28;20061;-64
2022/12/05 09:25:32;;;;;;;10.60;7.38;;;5.30;99.90;;;;;;5001544;28;20158;-64
2022/12/05 09:27:58;;;;;;;13.05;7.15;;;5.40;99.90;;;;;;5002445;28;20037;-64
2022/12/05 09:30:24;;;;;;;13.45;7.63;;;5.40;99.90;;;;;;5001172;28;20046;-64
2022/12/05 09:32:49;;;;;;;12.60;7.30;;;5.40;99.90;;;;;;5002839;28;20116;-64
2022/12/05 09:35:15;;;;;;;11.68;7.63;;;5.40;99.90;;;;;;5002864;28;20057;-64
2022/12/05 09:37:41;;;;;;;11.80;7.57;;;5.30;99.90;;;;;;5003082;28;20050;-64
2022/12/05 09:40:14;;;;;;;10.30;7.97;;;5.40;99.90;;;;;;5002019;28;20116;-64
2022/12/05 09:43:05;;;;;;;12.68;7.53;;;5.40;99.90;;;;;;5002080;28;20039;-63
2022/12/05 09:45:36;;;;;;;14.10;7.65;;;5.40;99.90;;;;;;5002100;28;20046;-63
2022/12/05 09:48:18;;;;;;;10.88;7.43;;;5.40;99.90;;;;;;4997878;28;20070;-63
2022/12/05 09:50:52;;;;;;;11.77;7.63;;;5.40;99.90;;;;;;5002888;28;20072;-64
2022/12/05 09:53:31;;;;;;;12.45;7.55;;;5.40;99.90;;;;;;4998465;28;20458;-63
2022/12/05 09:56:04;;;;;;;10.38;7.60;;;5.40;99.90;;;;;;5001816;28;20449;-63
2022/12/05 09:58:38;;;;;;;12.18;6.95;;;5.40;99.90;;;;;;5000947;28;20806;-64
2022/12/05 10:01:26;;;;;;;12.50;7.68;;;5.40;99.90;;;;;;4998360;28;20046;-63
2022/12/05 10:04:04;;;;;;;14.80;7.43;;;5.30;99.90;;;;;;4999179;28;20050;-63
2022/12/05 10:06:58;;;;;;;10.98;7.80;;;5.30;99.90;;;;;;5000636;28;20045;-64
2022/12/05 10:09:35;;;;;;;11.90;7.65;;;5.40;99.90;;;;;;4999053;28;20132;-66
2022/12/05 10:12:38;;;;;;;12.55;7.82;;;5.30;99.90;;;;;;4996781;28;20052;-66
2022/12/05 10:15:31;;;;;;;11.68;7.57;;;5.30;99.90;;;;;;4998535;28;20390;-64
2022/12/05 10:18:18;;;;;;;10.75;7.68;;;5.30;99.90;;;;;;4998228;28;20046;-64
2022/12/05 10:21:19;;;;;;;7.95;5.53;;;5.30;99.90;;;;;;5001130;28;20030;-65
2022/12/05 10:23:55;;;;;;;12.30;7.68;;;5.30;99.90;;;;;;4998613;28;20489;-65
2022/12/05 10:26:25;;;;;;;9.70;6.05;;;5.30;99.90;;;;;;4999448;28;20139;-65
2022/12/05 10:29:18;;;;;;;11.60;7.70;;;5.30;99.90;;;;;;4995830;28;20070;-65
2022/12/05 10:31:47;;;;;;;11.82;7.80;;;5.30;99.90;;;;;;5001066;28;20041;-65
2022/12/05 10:34:27;;;;;;;11.05;7.25;;;5.30;99.90;;;;;;5000637;28;20049;-65
2022/12/05 10:36:57;;;;;;;12.32;7.70;;;5.30;99.90;;;;;;5000006;28;20512;-65
2022/12/05 10:39:23;;;;;;;13.25;7.63;;;5.30;99.90;;;;;;4995595;28;20039;-64
2022/12/05 10:41:49;;;;;;;14.35;8.32;;;5.30;99.90;;;;;;5002953;28;20556;-65
2022/12/05 10:44:16;;;;;;;11.27;7.68;;;5.30;99.90;;;;;;4994270;28;20058;-65
2022/12/05 10:46:41;;;;;;;11.73;7.28;;;5.30;99.90;;;;;;5002241;28;20375;-65
2022/12/05 10:49:11;;;;;;;9.55;7.10;;;5.30;99.90;;;;;;5003080;28;20066;-65
2022/12/05 10:51:38;;;;;;;10.13;6.43;;;5.40;99.90;;;;;;5005081;28;20402;-65
2022/12/05 10:54:28;;;;;;;10.25;6.85;;;5.20;99.90;;;;;;5001048;28;20034;-65
2022/12/05 10:56:54;;;;;;;10.90;7.30;;;5.30;99.90;;;;;;5000271;28;20097;-65
2022/12/05 10:59:24;;;;;;;11.65;6.65;;;5.30;99.90;;;;;;4999774;28;20054;-65
2022/12/05 11:01:55;;;;;;;11.82;6.80;;;5.30;99.90;;;;;;5000302;28;20037;-65
2022/12/05 11:04:24;;;;;;;12.73;7.65;;;5.30;99.90;;;;;;4992736;28;20334;-65
2022/12/05 11:06:55;;;;;;;10.73;7.45;;;5.30;99.90;;;;;;4998497;28;20138;-65
2022/12/05 11:09:25;;;;;;;9.77;7.55;;;5.30;99.90;;;;;;4994720;28;20060;-65
2022/12/05 11:12:26;;;;;;;11.27;7.40;;;5.30;99.90;;;;;;4996855;28;20073;-65
2022/12/05 11:15:03;;;;;;;11.60;7.93;;;5.30;99.90;;;;;;4979763;28;20046;-65
2022/12/05 11:17:36;;;;;;;11.20;7.28;;;5.20;99.90;;;;;;5001682;28;20041;-65
2022/12/05 11:20:22;;;;;;;12.40;8.02;;;5.20;99.90;;;;;;4997277;28;20057;-65
2022/12/05 11:22:50;;;;;;;12.82;8.02;;;5.20;99.90;;;;;;4997046;28;20038;-65
2022/12/05 11:25:28;;;;;;;13.55;7.43;;;5.20;99.90;;;;;;4995829;28;20057;-65
2022/12/05 11:27:55;;;;;;;13.18;8.63;;;5.20;99.90;;;;;;4994979;28;20409;-67
2022/12/05 11:30:23;;;;;;;10.80;6.60;;;5.20;99.90;;;;;;4995201;28;20046;-66
2022/12/05 11:32:50;;;;;;;11.43;7.32;;;5.20;99.90;;;;;;5000264;28;20098;-65
2022/12/05 11:35:25;;;;;;;10.57;6.97;;;5.20;99.90;;;;;;5000524;28;20046;-66
2022/12/05 11:38:04;;;;;;;;;;;5.20;99.90;;;;;;5034350;28;20050;-66
2022/12/05 11:40:46;;;;;;;9.52;7.22;;;5.20;99.90;;;;;;4997094;28;19944;-66
2022/12/05 11:43:23;;;;;;;9.80;7.55;;;5.20;99.90;;;;;;5001068;28;20049;-65
2022/12/05 11:46:13;;;;;;;8.57;6.93;;;5.20;99.90;;;;;;4999629;28;20062;-65
2022/12/05 11:49:13;;;;;;;11.73;6.97;;;5.20;99.90;;;;;;5003565;28;20470;-65
2022/12/05 11:51:47;;;;;;;11.25;6.80;;;5.20;99.90;;;;;;4993193;28;20042;-65
2022/12/05 11:54:16;;;;;;;11.02;6.82;;;5.20;99.90;;;;;;4998606;28;20039;-65
2022/12/05 11:57:18;;;;;;;9.75;6.28;;;5.30;99.90;;;;;;4994976;28;20540;-65
2022/12/05 11:59:59;;;;;;;12.65;6.65;;;5.30;99.90;;;;;;4998685;28;20347;-65
2022/12/05 12:02:59;;;;;;;11.25;6.65;;;5.30;99.90;;;;;;4993626;28;20038;-65
2022/12/05 12:05:40;;;;;;;8.75;6.13;;;5.30;99.90;;;;;;4995156;28;20038;-65
2022/12/05 12:08:18;;;;;;;9.88;6.30;;;5.20;99.90;;;;;;5001556;28;20046;-65
2022/12/05 12:11:22;;;;;;;7.57;5.15;;;5.30;99.90;;;;;;4997720;28;20260;-65
2022/12/05 12:14:03;;;;;;;7.55;5.32;;;5.30;99.90;;;;;;4973708;28;20081;-65
2022/12/05 12:16:54;;;;;;;6.93;5.18;;;5.30;99.90;;;;;;4999199;28;20038;-64
2022/12/05 12:19:22;;;;;;;9.07;5.35;;;5.30;99.90;;;;;;5002917;28;20042;-65
2022/12/05 12:22:00;;;;;;;7.47;4.70;;;5.30;99.90;;;;;;5001414;28;20038;-66
2022/12/05 12:25:07;;;;;;;8.27;5.18;;;5.30;99.90;;;;;;5001294;28;20121;-65
2022/12/05 12:27:47;;;;;;;5.85;4.47;;;5.30;99.90;;;;;;4991211;28;20049;-66
2022/12/05 12:30:21;;;;;;;8.15;4.85;;;5.40;99.90;;;;;;5000140;28;20038;-65
2022/12/05 12:33:04;;;;;;;9.30;5.20;;;5.30;99.90;;;;;;4996219;28;20125;-65
2022/12/05 12:35:45;;;;;;;7.25;4.50;;;5.30;99.90;;;;;;5015156;28;20053;-65
2022/12/05 12:38:30;;;;;;;7.28;4.82;;;5.30;99.90;;;;;;5002958;28;20165;-66
2022/12/05 12:41:18;;;;;;;6.57;4.65;;;5.30;99.90;;;;;;5000412;28;20074;-66
2022/12/05 12:44:04;;;;;;;7.03;4.93;;;5.30;99.90;;;;;;5030520;28;20038;-65
2022/12/05 12:46:52;;;;;;;7.30;4.95;;;5.40;99.90;;;;;;5001107;28;20133;-66
2022/12/05 12:49:27;;;;;;;8.25;4.90;;;5.40;99.90;;;;;;5007544;28;20053;-66
2022/12/05 12:51:58;;;;;;;6.13;4.43;;;5.40;99.90;;;;;;5013532;28;20502;-65
2022/12/05 12:54:55;;;;;;;7.10;4.40;;;5.40;99.90;;;;;;5002707;28;20057;-65
2022/12/05 12:57:51;;;;;;;5.80;3.88;;;5.40;99.90;;;;;;4994274;28;20129;-65
2022/12/05 13:00:30;;;;;;;7.55;4.50;;;5.40;99.90;;;;;;5000360;28;20045;-65
2022/12/05 13:03:15;;;;;;;5.75;4.00;;;5.40;99.90;;;;;;5003712;28;20041;-65
2022/12/05 13:05:56;;;;;;;5.72;3.35;;;5.40;99.90;;;;;;4999997;28;20213;-65
2022/12/05 13:08:36;;;;;;;6.15;4.25;;;5.40;99.90;;;;;;5003064;28;20119;-65
2022/12/05 13:11:07;;;;;;;4.55;3.63;;;5.40;99.90;;;;;;5001661;28;20042;-65
2022/12/05 13:13:37;;;;;;;5.25;3.65;;;5.40;99.90;;;;;;5005940;28;20056;-66
2022/12/05 13:16:06;;;;;;;5.53;3.65;;;5.40;99.90;;;;;;4999657;28;20046;-66
2022/12/05 13:18:32;;;;;;;7.38;4.05;;;5.40;99.90;;;;;;5028950;28;20062;-65
2022/12/05 13:21:09;;;;;;;6.28;3.92;;;5.40;99.90;;;;;;5002927;28;20539;-65
2022/12/05 13:23:45;;;;;;;6.88;4.07;;;5.40;99.90;;;;;;5007368;28;20088;-65
2022/12/05 13:26:13;;;;;;;6.22;4.07;;;5.30;99.90;;;;;;5000215;28;20068;-65